PY-0043 weather

Mayor Infante Rivarola Airport
Mayor Infante Rivarola, BoquerĂ³n Department, Paraguay

Public forecast

Using degrees Celsius for public forecast. Weather courtesy of forecast.io.

Closest aviation weather report (METAR) to Mayor Infante Rivarola Airport

Report is more than 6 hours old.

Closest report is Sipuati Airport, 54.2 nm (100.4 km) NW. Retrieved 2015/04/19 10:00 UTC (5 years ago):

SLSP 191000Z 00000KT 0100 FG VV/// 21/21 Q1013

Closest aviation forecast (TAF) to Mayor Infante Rivarola Airport

Forecast is more than 12 hours old.

Closest forecast is Yacuiba Airport, 72.0 nm (133.3 km) WSW. Retrieved 2020/08/05 12:30 UTC (18 hours ago):

TAF SLYA 051000Z 0512/0612 00000KT 9999 NSC TX34/0519Z TN10/0611Z BECMG 0514/0516 06012KT BECMG 0523/0601 00000KT